createdAt,value
2018-09-28T00:01:20.658Z,4.10
2018-09-28T00:03:25.149Z,3.27
2018-09-28T00:05:29.688Z,4.90
2018-09-28T00:07:34.292Z,2.00
2018-09-28T00:09:38.766Z,2.93
2018-09-28T00:11:43.349Z,3.13
2018-09-28T00:13:47.860Z,3.00
2018-09-28T00:15:52.363Z,4.47
2018-09-28T00:17:56.884Z,4.67
2018-09-28T00:20:01.357Z,4.23
2018-09-28T00:22:05.849Z,4.07
2018-09-28T00:24:10.333Z,4.50
2018-09-28T00:26:14.834Z,2.40
2018-09-28T00:28:19.443Z,2.90
2018-09-28T00:30:23.927Z,3.00
2018-09-28T00:32:28.423Z,3.57
2018-09-28T00:34:32.943Z,3.13
2018-09-28T00:36:37.418Z,2.37
2018-09-28T00:38:42.576Z,2.90
2018-09-28T00:40:47.095Z,4.20
2018-09-28T00:42:51.604Z,2.70
2018-09-28T00:44:56.135Z,2.47
2018-09-28T00:47:00.591Z,5.47
2018-09-28T00:49:05.111Z,4.90
2018-09-28T00:51:09.654Z,2.57
2018-09-28T00:53:14.124Z,3.13
2018-09-28T00:55:18.655Z,3.10
2018-09-28T00:57:23.123Z,2.97
2018-09-28T00:59:27.622Z,2.73
2018-09-28T01:01:32.522Z,3.43
2018-09-28T01:03:37.071Z,2.93
2018-09-28T01:05:41.611Z,2.73
2018-09-28T01:07:46.115Z,2.30
2018-09-28T01:09:50.599Z,2.50
2018-09-28T01:11:55.126Z,2.27
2018-09-28T01:13:59.654Z,4.97
2018-09-28T01:16:04.162Z,3.27
2018-09-28T01:18:08.834Z,4.00
2018-09-28T01:20:13.294Z,3.53
2018-09-28T01:22:17.806Z,3.87
2018-09-28T01:24:22.350Z,3.10
2018-09-28T01:26:26.855Z,3.63
2018-09-28T01:28:31.374Z,3.70
2018-09-28T01:30:36.078Z,2.53
2018-09-28T01:32:40.545Z,5.93
2018-09-28T01:34:45.024Z,6.63
2018-09-28T01:36:49.508Z,4.37
2018-09-28T01:38:54.010Z,2.27
2018-09-28T01:40:58.503Z,5.27
2018-09-28T01:43:03.110Z,6.20
2018-09-28T01:45:07.629Z,5.60
2018-09-28T01:47:12.200Z,3.73
2018-09-28T01:49:16.687Z,4.27
2018-09-28T01:51:21.207Z,4.07
2018-09-28T01:53:25.726Z,3.13
2018-09-28T01:55:30.223Z,5.27
2018-09-28T01:57:34.702Z,7.87
2018-09-28T01:59:39.234Z,5.63
2018-09-28T02:01:43.806Z,4.83
2018-09-28T02:03:48.314Z,9.13
2018-09-28T02:05:52.935Z,6.10
2018-09-28T02:07:57.439Z,4.97
2018-09-28T02:10:01.943Z,3.97
2018-09-28T02:12:06.532Z,6.13
2018-09-28T02:14:11.009Z,5.73
2018-09-28T02:16:16.143Z,3.70
2018-09-28T02:18:20.621Z,4.42
2018-09-28T02:20:25.124Z,4.33
2018-09-28T02:22:29.636Z,5.28
2018-09-28T02:24:34.619Z,3.58
2018-09-28T02:26:39.134Z,4.25
2018-09-28T02:28:43.944Z,3.58
2018-09-28T02:30:48.470Z,4.28
2018-09-28T02:32:53.015Z,5.37
2018-09-28T02:34:57.542Z,3.47
2018-09-28T02:37:02.052Z,5.43
2018-09-28T02:39:08.337Z,3.63
2018-09-28T02:41:12.914Z,3.73
2018-09-28T02:43:17.373Z,3.83
2018-09-28T02:45:22.267Z,4.77
2018-09-28T02:47:26.775Z,4.57
2018-09-28T02:49:31.254Z,5.80
2018-09-28T02:51:35.844Z,3.92
2018-09-28T02:53:40.391Z,6.07
2018-09-28T02:55:45.881Z,7.30
2018-09-28T02:57:50.479Z,4.17
2018-09-28T02:59:55.031Z,5.13
2018-09-28T03:01:59.526Z,8.73
2018-09-28T03:04:04.029Z,6.62
2018-09-28T03:06:08.533Z,5.30
2018-09-28T03:08:13.080Z,5.73
2018-09-28T03:10:17.594Z,4.63
2018-09-28T03:12:22.083Z,5.65
2018-09-28T03:14:26.588Z,5.35
2018-09-28T03:16:31.210Z,6.95
2018-09-28T03:18:35.893Z,3.73
2018-09-28T03:20:40.437Z,4.28
2018-09-28T03:22:45.558Z,6.20
2018-09-28T03:24:50.043Z,6.65
2018-09-28T03:26:55.072Z,4.03
2018-09-28T03:28:59.599Z,3.43
2018-09-28T03:31:04.167Z,8.67
2018-09-28T03:33:08.776Z,3.50
2018-09-28T03:35:13.280Z,4.70
2018-09-28T03:37:17.990Z,4.27
2018-09-28T03:39:22.514Z,4.30
2018-09-28T03:41:26.955Z,5.00
2018-09-28T03:43:31.491Z,5.03
2018-09-28T03:45:35.990Z,5.50
2018-09-28T03:47:42.494Z,4.53
2018-09-28T03:49:46.967Z,5.03
2018-09-28T03:51:51.450Z,6.53
2018-09-28T03:53:56.689Z,4.45
2018-09-28T03:56:01.221Z,6.08
2018-09-28T03:58:05.859Z,7.43
2018-09-28T04:00:11.402Z,4.30
2018-09-28T04:02:17.054Z,5.23
2018-09-28T04:04:21.568Z,5.43
2018-09-28T04:06:26.087Z,4.70
2018-09-28T04:08:30.556Z,5.43
2018-09-28T04:10:35.011Z,5.58
2018-09-28T04:12:39.558Z,4.90
2018-09-28T04:14:44.087Z,5.87
2018-09-28T04:16:48.887Z,7.00
2018-09-28T04:18:53.374Z,5.08
2018-09-28T04:20:57.865Z,5.07
2018-09-28T04:23:02.296Z,8.13
2018-09-28T04:25:06.853Z,6.37
2018-09-28T04:27:11.387Z,5.87
2018-09-28T04:29:15.853Z,6.20
2018-09-28T04:31:20.327Z,8.37
2018-09-28T04:33:24.847Z,6.67
2018-09-28T04:35:29.300Z,6.07
2018-09-28T04:37:34.025Z,7.97
2018-09-28T04:39:38.447Z,6.67
2018-09-28T04:41:42.910Z,10.20
2018-09-28T04:43:47.409Z,10.78
2018-09-28T04:45:52.195Z,9.23
2018-09-28T04:47:56.646Z,8.00
2018-09-28T04:50:01.208Z,7.27
2018-09-28T04:52:05.912Z,7.87
2018-09-28T04:54:10.369Z,7.42
2018-09-28T04:56:14.859Z,6.62
2018-09-28T04:58:19.322Z,7.37
2018-09-28T05:00:23.887Z,8.23
2018-09-28T05:02:28.385Z,9.23
2018-09-28T05:04:32.846Z,8.40
2018-09-28T05:06:38.451Z,6.40
2018-09-28T05:08:43.006Z,8.88
2018-09-28T05:10:47.455Z,9.23
2018-09-28T05:12:51.911Z,6.45
2018-09-28T05:14:56.407Z,7.40
2018-09-28T05:17:00.910Z,11.73
2018-09-28T05:19:05.491Z,8.13
2018-09-28T05:21:09.967Z,7.20
2018-09-28T05:23:14.466Z,9.80
2018-09-28T05:25:19.048Z,8.07
2018-09-28T05:27:23.487Z,8.23
2018-09-28T05:29:27.943Z,8.33
2018-09-28T05:31:32.505Z,9.93
2018-09-28T05:33:37.111Z,10.28
2018-09-28T05:35:41.635Z,14.10
2018-09-28T05:37:46.135Z,11.37
2018-09-28T05:39:50.587Z,9.20
2018-09-28T05:41:55.051Z,7.70
2018-09-28T05:43:59.601Z,6.97
2018-09-28T05:46:04.094Z,7.20
2018-09-28T05:48:08.605Z,5.25
2018-09-28T05:50:13.332Z,7.07
2018-09-28T05:52:17.810Z,5.72
2018-09-28T05:54:22.287Z,4.77
2018-09-28T05:56:26.731Z,6.45
2018-09-28T05:58:36.584Z,5.40
2018-09-28T06:01:46.818Z,5.55
2018-09-28T06:03:56.375Z,7.08
2018-09-28T06:06:02.883Z,5.87
2018-09-28T06:08:07.624Z,6.45
2018-09-28T06:10:12.190Z,7.03
2018-09-28T06:12:16.727Z,9.18
2018-09-28T06:14:21.187Z,7.50
2018-09-28T06:16:25.827Z,6.00
2018-09-28T06:18:30.377Z,6.70
2018-09-28T06:20:34.862Z,8.33
2018-09-28T06:22:39.338Z,5.50
2018-09-28T06:24:43.872Z,6.20
2018-09-28T06:26:48.311Z,8.63
2018-09-28T06:28:52.792Z,6.10
2018-09-28T06:30:57.211Z,5.97
2018-09-28T06:33:01.704Z,7.25
2018-09-28T06:35:06.273Z,7.13
2018-09-28T06:37:10.839Z,7.92
2018-09-28T06:39:15.318Z,6.90
2018-09-28T06:41:19.874Z,12.70
2018-09-28T06:43:24.376Z,5.87
2018-09-28T06:45:28.888Z,7.65
2018-09-28T06:47:33.402Z,7.43
2018-09-28T06:49:37.973Z,6.58
2018-09-28T06:51:42.430Z,6.47
2018-09-28T06:53:46.983Z,6.80
2018-09-28T06:55:52.615Z,6.90
2018-09-28T06:57:57.093Z,11.20
2018-09-28T07:00:01.566Z,8.23
2018-09-28T07:02:06.067Z,6.72
2018-09-28T07:04:10.647Z,8.13
2018-09-28T07:06:16.119Z,7.27
2018-09-28T07:08:20.542Z,6.00
2018-09-28T07:10:24.986Z,7.80
2018-09-28T07:12:29.452Z,7.47
2018-09-28T07:14:33.914Z,5.37
2018-09-28T07:16:38.414Z,6.10
2018-09-28T07:18:43.110Z,5.73
2018-09-28T07:20:48.167Z,7.30
2018-09-28T07:22:53.464Z,7.75
2018-09-28T07:24:57.961Z,6.00
2018-09-28T07:27:02.407Z,7.75
2018-09-28T07:29:06.969Z,7.60
2018-09-28T07:31:11.402Z,6.70
2018-09-28T07:33:15.925Z,5.80
2018-09-28T07:35:20.460Z,7.20
2018-09-28T07:37:25.042Z,8.83
2018-09-28T07:39:29.583Z,7.75
2018-09-28T07:41:34.226Z,11.47
2018-09-28T07:43:38.747Z,12.55
2018-09-28T07:45:43.212Z,16.35
2018-09-28T07:47:47.702Z,10.82
2018-09-28T07:49:53.279Z,10.20
2018-09-28T07:51:57.828Z,8.68
2018-09-28T07:54:02.298Z,10.10
2018-09-28T07:56:06.734Z,10.40
2018-09-28T07:58:11.171Z,10.20
2018-09-28T08:00:16.195Z,8.80
2018-09-28T08:02:20.644Z,9.45
2018-09-28T08:04:25.115Z,10.57
2018-09-28T08:06:29.532Z,8.43
2018-09-28T08:08:34.917Z,12.55
2018-09-28T08:10:39.420Z,7.97
2018-09-28T08:12:44.842Z,7.95
2018-09-28T08:14:49.288Z,8.30
2018-09-28T08:16:54.838Z,12.53
2018-09-28T08:18:59.331Z,11.73
2018-09-28T08:21:03.887Z,9.30
2018-09-28T08:23:08.346Z,10.73
2018-09-28T08:25:12.822Z,10.13
2018-09-28T08:27:17.350Z,12.57
2018-09-28T08:29:21.815Z,10.40
2018-09-28T08:31:26.319Z,10.32
2018-09-28T08:33:30.786Z,9.13
2018-09-28T08:35:35.643Z,9.37
2018-09-28T08:37:40.243Z,8.38
2018-09-28T08:39:44.731Z,15.75
2018-09-28T08:41:49.201Z,8.83
2018-09-28T08:43:53.696Z,10.37
2018-09-28T08:45:58.165Z,9.63
2018-09-28T08:48:02.698Z,10.17
2018-09-28T08:50:07.227Z,12.20
2018-09-28T08:52:11.695Z,12.43
2018-09-28T08:54:16.210Z,10.48
2018-09-28T08:56:20.710Z,11.33
2018-09-28T08:58:25.350Z,10.93
2018-09-28T09:00:29.802Z,9.83
2018-09-28T09:02:35.327Z,13.50
2018-09-28T09:04:39.807Z,10.97
2018-09-28T09:06:44.279Z,15.20
2018-09-28T09:08:49.440Z,11.80
2018-09-28T09:10:53.976Z,12.33
2018-09-28T09:12:58.428Z,12.83
2018-09-28T09:15:03.527Z,12.63
2018-09-28T09:17:07.976Z,14.23
2018-09-28T09:19:12.488Z,14.10
2018-09-28T09:21:16.979Z,18.97
2018-09-28T09:23:21.538Z,14.70
2018-09-28T09:25:26.019Z,13.33
2018-09-28T09:27:31.305Z,12.73
2018-09-28T09:29:35.822Z,10.82
2018-09-28T09:31:40.317Z,11.87
2018-09-28T09:33:44.862Z,11.65
2018-09-28T09:35:49.542Z,15.40
2018-09-28T09:37:53.994Z,12.20
2018-09-28T09:39:58.611Z,11.80
2018-09-28T09:42:03.087Z,10.83
2018-09-28T09:44:07.638Z,14.70
2018-09-28T09:46:12.130Z,16.48
2018-09-28T09:48:16.631Z,13.85
2018-09-28T09:50:21.227Z,14.80
2018-09-28T09:52:25.834Z,11.17
2018-09-28T09:54:30.316Z,17.17
2018-09-28T09:56:34.806Z,14.20
2018-09-28T09:58:39.240Z,14.95
2018-09-28T10:00:49.820Z,18.35
2018-09-28T10:02:59.354Z,18.92
2018-09-28T10:05:04.699Z,15.90
2018-09-28T10:07:09.212Z,15.88
2018-09-28T10:09:14.615Z,22.27
2018-09-28T10:11:19.143Z,18.67
2018-09-28T10:13:24.566Z,22.40
2018-09-28T10:15:29.092Z,18.57
2018-09-28T10:17:33.543Z,17.77
2018-09-28T10:19:38.138Z,19.50
2018-09-28T10:21:42.630Z,19.10
2018-09-28T10:23:47.123Z,19.97
2018-09-28T10:25:51.625Z,18.00
2018-09-28T10:27:56.131Z,18.93
2018-09-28T10:30:00.598Z,18.33
2018-09-28T10:32:05.101Z,19.77
2018-09-28T10:34:09.687Z,15.32
2018-09-28T10:36:14.177Z,20.53
2018-09-28T10:38:18.674Z,17.05
2018-09-28T10:40:23.227Z,17.30
2018-09-28T10:42:27.631Z,20.03
2018-09-28T10:44:32.091Z,13.98
2018-09-28T10:46:36.615Z,13.15
2018-09-28T10:48:41.034Z,13.43
2018-09-28T10:50:45.580Z,10.60
2018-09-28T10:52:50.172Z,10.50
2018-09-28T10:54:54.572Z,14.43
2018-09-28T10:56:59.058Z,13.30
2018-09-28T10:59:03.532Z,13.47
2018-09-28T11:01:08.119Z,12.47
2018-09-28T11:03:12.693Z,9.93
2018-09-28T11:05:17.174Z,11.20
2018-09-28T11:07:21.674Z,14.45
2018-09-28T11:09:26.767Z,12.53
2018-09-28T11:11:31.280Z,12.55
2018-09-28T11:13:36.059Z,12.47
2018-09-28T11:15:40.556Z,11.10
2018-09-28T11:17:45.003Z,10.70
2018-09-28T11:19:49.539Z,9.60
2018-09-28T11:21:53.998Z,10.58
2018-09-28T11:23:58.496Z,10.23
2018-09-28T11:26:05.162Z,12.37
2018-09-28T11:28:09.682Z,16.50
2018-09-28T11:30:14.120Z,8.40
2018-09-28T11:32:18.610Z,10.73
2018-09-28T11:34:23.220Z,11.97
2018-09-28T11:36:28.067Z,9.60
2018-09-28T11:38:32.570Z,14.20
2018-09-28T11:40:37.133Z,11.10
2018-09-28T11:42:42.083Z,11.00
2018-09-28T11:44:46.564Z,11.57
2018-09-28T11:46:51.078Z,10.40
2018-09-28T11:48:55.547Z,9.23
2018-09-28T11:50:59.990Z,12.40
2018-09-28T11:53:04.503Z,13.20
2018-09-28T11:55:09.006Z,12.17
2018-09-28T11:57:14.429Z,9.43
2018-09-28T11:59:18.890Z,8.77
2018-09-28T12:01:23.353Z,10.57
2018-09-28T12:03:27.893Z,11.03
2018-09-28T12:05:32.334Z,9.58
2018-09-28T12:07:36.787Z,6.85
2018-09-28T12:09:41.276Z,9.30
2018-09-28T12:11:45.741Z,7.75
2018-09-28T12:13:50.220Z,6.37
2018-09-28T12:15:54.681Z,8.77
2018-09-28T12:17:59.192Z,11.00
2018-09-28T12:20:03.639Z,11.33
2018-09-28T12:22:08.714Z,9.27
2018-09-28T12:24:13.218Z,9.88
2018-09-28T12:26:18.599Z,11.33
2018-09-28T12:28:23.098Z,10.08
2018-09-28T12:30:29.474Z,8.20
2018-09-28T12:32:34.058Z,9.07
2018-09-28T12:34:38.525Z,12.75
2018-09-28T12:36:43.471Z,10.80
2018-09-28T12:38:47.923Z,8.23
2018-09-28T12:40:55.110Z,7.60
2018-09-28T12:43:00.784Z,10.25
2018-09-28T12:45:07.463Z,15.73
2018-09-28T12:47:11.880Z,10.90
2018-09-28T12:49:17.357Z,13.38
2018-09-28T12:51:22.088Z,10.07
2018-09-28T12:53:27.750Z,23.38
2018-09-28T12:55:32.274Z,15.80
2018-09-28T12:57:36.856Z,11.20
2018-09-28T12:59:41.312Z,9.65
2018-09-28T13:01:47.664Z,13.13
2018-09-28T13:03:52.319Z,13.10
2018-09-28T13:05:57.004Z,15.55
2018-09-28T13:08:01.479Z,11.57
2018-09-28T13:10:09.745Z,11.37
2018-09-28T13:12:15.404Z,15.13
2018-09-28T13:14:19.909Z,12.03
2018-09-28T13:16:27.598Z,8.70
2018-09-28T13:18:32.145Z,10.13
2018-09-28T13:20:38.109Z,14.87
2018-09-28T13:22:42.618Z,10.60
2018-09-28T13:24:47.170Z,13.25
2018-09-28T13:26:51.706Z,11.13
2018-09-28T13:28:56.342Z,10.80
2018-09-28T13:31:00.998Z,12.53
2018-09-28T13:33:05.520Z,10.60
2018-09-28T13:35:10.226Z,9.50
2018-09-28T13:37:15.549Z,10.63
2018-09-28T13:39:20.062Z,11.77
2018-09-28T13:41:24.595Z,11.10
2018-09-28T13:43:29.147Z,9.10
2018-09-28T13:45:34.437Z,6.73
2018-09-28T13:47:38.831Z,15.40
2018-09-28T13:49:43.364Z,10.27
2018-09-28T13:51:47.875Z,11.70
2018-09-28T13:53:52.495Z,8.65
2018-09-28T13:55:58.039Z,7.42
2018-09-28T13:58:02.506Z,9.33
2018-09-28T14:00:07.988Z,13.37
2018-09-28T14:02:13.210Z,11.77
2018-09-28T14:04:17.692Z,9.05
2018-09-28T14:06:22.801Z,8.88
2018-09-28T14:08:28.413Z,6.97
2018-09-28T14:10:32.910Z,7.67
2018-09-28T14:12:37.545Z,8.60
2018-09-28T14:14:42.021Z,9.43
2018-09-28T14:16:47.405Z,7.75
2018-09-28T14:18:51.891Z,9.40
2018-09-28T14:20:56.910Z,10.88
2018-09-28T14:23:01.413Z,8.27
2018-09-28T14:25:05.905Z,7.70
2018-09-28T14:27:10.697Z,7.33
2018-09-28T14:29:15.947Z,7.50
2018-09-28T14:31:20.543Z,11.10
2018-09-28T14:33:25.066Z,6.70
2018-09-28T14:35:29.559Z,8.05
2018-09-28T14:37:34.014Z,8.67
2018-09-28T14:39:38.540Z,7.37
2018-09-28T14:41:43.053Z,6.03
2018-09-28T14:43:48.322Z,8.97
2018-09-28T14:45:52.886Z,9.03
2018-09-28T14:47:57.356Z,5.93
2018-09-28T14:50:01.826Z,8.60
2018-09-28T14:52:06.444Z,7.55
2018-09-28T14:54:11.076Z,9.00
2018-09-28T14:56:15.596Z,9.03
2018-09-28T14:58:21.066Z,8.08
2018-09-28T15:00:25.749Z,9.48
2018-09-28T15:02:30.318Z,4.67
2018-09-28T15:04:34.840Z,8.93
2018-09-28T15:06:39.636Z,11.50
2018-09-28T15:08:44.077Z,7.35
2018-09-28T15:10:48.618Z,5.20
2018-09-28T15:12:53.007Z,5.93
2018-09-28T15:14:57.454Z,6.03
2018-09-28T15:17:02.438Z,8.73
2018-09-28T15:19:07.220Z,5.27
2018-09-28T15:21:12.897Z,6.33
2018-09-28T15:23:17.430Z,17.23
2018-09-28T15:25:21.930Z,6.63
2018-09-28T15:27:26.339Z,9.50
2018-09-28T15:29:30.877Z,9.70
2018-09-28T15:31:36.080Z,14.50
2018-09-28T15:33:40.495Z,5.77
2018-09-28T15:35:45.564Z,7.03
2018-09-28T15:37:51.158Z,8.33
2018-09-28T15:39:55.719Z,9.63
2018-09-28T15:42:01.536Z,6.05
2018-09-28T15:44:08.115Z,6.60
2018-09-28T15:46:13.134Z,7.20
2018-09-28T15:48:18.311Z,7.62
2018-09-28T15:50:24.111Z,4.65
2018-09-28T15:52:28.568Z,7.73
2018-09-28T15:54:33.081Z,7.47
2018-09-28T15:56:38.298Z,6.75
2018-09-28T15:58:42.744Z,7.13
2018-09-28T16:00:47.210Z,4.57
2018-09-28T16:02:51.676Z,7.50
2018-09-28T16:04:56.244Z,8.23
2018-09-28T16:07:00.749Z,4.27
2018-09-28T16:09:07.315Z,7.23
2018-09-28T16:11:12.098Z,31.97
2018-09-28T16:13:17.475Z,39.40
2018-09-28T16:15:21.986Z,31.33
2018-09-28T16:17:26.475Z,116.63
2018-09-28T16:19:31.014Z,70.83
2018-09-28T16:21:35.558Z,48.83
2018-09-28T16:23:40.020Z,71.47
2018-09-28T16:25:44.568Z,46.50
2018-09-28T16:27:49.038Z,39.45
2018-09-28T16:29:54.680Z,22.23
2018-09-28T16:31:59.182Z,14.55
2018-09-28T16:34:03.646Z,6.23
2018-09-28T16:36:08.248Z,7.07
2018-09-28T16:38:12.711Z,3.70
2018-09-28T16:40:17.265Z,5.43
2018-09-28T16:42:21.759Z,6.78
2018-09-28T16:44:26.224Z,6.25
2018-09-28T16:46:30.686Z,5.50
2018-09-28T16:48:35.167Z,6.50
2018-09-28T16:50:39.694Z,7.50
2018-09-28T16:52:44.675Z,5.95
2018-09-28T16:54:49.128Z,4.47
2018-09-28T16:56:54.798Z,6.23
2018-09-28T16:58:59.251Z,4.17
2018-09-28T17:01:03.754Z,5.30
2018-09-28T17:03:08.759Z,5.47
2018-09-28T17:05:13.236Z,8.27
2018-09-28T17:07:17.734Z,8.60
2018-09-28T17:09:22.244Z,10.37
2018-09-28T17:11:26.708Z,8.73
2018-09-28T17:13:31.132Z,14.18
2018-09-28T17:15:35.623Z,9.60
2018-09-28T17:17:40.088Z,7.33
2018-09-28T17:19:44.529Z,8.23
2018-09-28T17:21:49.036Z,6.97
2018-09-28T17:23:53.454Z,9.67
2018-09-28T17:25:57.992Z,5.67
2018-09-28T17:28:02.469Z,21.02
2018-09-28T17:30:07.602Z,8.63
2018-09-28T17:32:12.090Z,32.53
2018-09-28T17:34:16.560Z,22.60
2018-09-28T17:36:21.111Z,18.63
2018-09-28T17:38:25.531Z,11.00
2018-09-28T17:40:30.014Z,12.30
2018-09-28T17:42:34.702Z,4.97
2018-09-28T17:44:39.151Z,19.43
2018-09-28T17:46:43.611Z,15.43
2018-09-28T17:48:48.105Z,3.95
2018-09-28T17:50:52.587Z,9.13
2018-09-28T17:52:57.210Z,6.75
2018-09-28T17:55:01.666Z,5.65
2018-09-28T17:57:06.386Z,28.63
2018-09-28T17:59:13.331Z,9.93
2018-09-28T18:01:17.870Z,13.63
2018-09-28T18:03:22.557Z,6.30
2018-09-28T18:05:27.017Z,3.50
2018-09-28T18:07:31.534Z,6.25
2018-09-28T18:09:36.069Z,8.93
2018-09-28T18:11:40.618Z,27.37
2018-09-28T18:13:45.229Z,11.18
2018-09-28T18:15:49.767Z,9.73
2018-09-28T18:17:54.477Z,4.25
2018-09-28T18:19:59.093Z,6.97
2018-09-28T18:22:03.595Z,3.50
2018-09-28T18:24:08.235Z,3.43
2018-09-28T18:26:12.719Z,3.70
2018-09-28T18:28:17.314Z,3.60
2018-09-28T18:30:21.852Z,3.80
2018-09-28T18:32:26.371Z,6.30
2018-09-28T18:34:30.791Z,4.92
2018-09-28T18:36:35.285Z,3.67
2018-09-28T18:38:39.758Z,4.70
2018-09-28T18:40:44.271Z,3.77
2018-09-28T18:42:48.899Z,3.97
2018-09-28T18:44:53.351Z,4.07
2018-09-28T18:46:58.065Z,4.53
2018-09-28T18:49:03.130Z,3.10
2018-09-28T18:51:07.583Z,5.37
2018-09-28T18:53:12.064Z,5.35
2018-09-28T18:55:16.871Z,5.10
2018-09-28T18:57:21.418Z,2.73
2018-09-28T18:59:26.103Z,2.17
2018-09-28T19:01:30.566Z,3.83
2018-09-28T19:03:35.047Z,3.47
2018-09-28T19:05:39.631Z,6.30
2018-09-28T19:07:44.242Z,5.60
2018-09-28T19:09:48.774Z,4.73
2018-09-28T19:11:53.254Z,4.28
2018-09-28T19:13:57.775Z,4.42
2018-09-28T19:20:40.766Z,5.17
2018-09-28T19:22:45.247Z,6.40
2018-09-28T19:24:49.706Z,7.47
2018-09-28T19:26:54.307Z,7.10
2018-09-28T19:28:58.830Z,11.10
2018-09-28T19:31:03.302Z,6.87
2018-09-28T19:33:08.442Z,6.37
2018-09-28T19:35:13.186Z,6.17
2018-09-28T19:37:17.674Z,3.93
2018-09-28T19:39:22.130Z,5.27
2018-09-28T19:41:26.606Z,4.27
2018-09-28T19:43:31.324Z,6.47
2018-09-28T19:45:35.792Z,4.50
2018-09-28T19:47:40.263Z,3.90
2018-09-28T19:49:44.759Z,3.40
2018-09-28T19:51:49.236Z,6.87
2018-09-28T19:53:53.859Z,6.87
2018-09-28T19:55:58.314Z,5.20
2018-09-28T19:58:02.850Z,4.20
2018-09-28T20:00:08.314Z,2.93
2018-09-28T20:02:12.823Z,4.53
2018-09-28T20:04:17.303Z,2.70
2018-09-28T20:06:21.853Z,3.13
2018-09-28T20:08:26.318Z,4.07
2018-09-28T20:10:30.794Z,4.20
2018-09-28T20:12:35.243Z,2.20
2018-09-28T20:14:39.803Z,3.13
2018-09-28T20:16:45.517Z,2.17
2018-09-28T20:18:50.034Z,1.80
2018-09-28T20:20:54.487Z,1.57
2018-09-28T20:22:58.947Z,2.83
2018-09-28T20:25:03.431Z,4.37
2018-09-28T20:27:08.069Z,1.90
2018-09-28T20:29:12.530Z,2.87
2018-09-28T20:31:17.368Z,2.10
2018-09-28T20:33:21.792Z,1.27
2018-09-28T20:35:26.274Z,3.70
2018-09-28T20:37:30.750Z,1.87
2018-09-28T20:39:35.267Z,2.80
2018-09-28T20:41:39.708Z,4.50
2018-09-28T20:43:44.155Z,3.53
2018-09-28T20:45:48.679Z,3.10
2018-09-28T20:47:53.154Z,3.47
2018-09-28T20:49:57.604Z,2.40
2018-09-28T20:52:02.087Z,3.37
2018-09-28T20:54:07.479Z,1.83
2018-09-28T20:56:11.927Z,2.23
2018-09-28T20:58:16.439Z,2.13
2018-09-28T21:00:20.925Z,2.27
2018-09-28T21:02:25.390Z,2.03
2018-09-28T21:04:30.033Z,1.67
2018-09-28T21:06:34.478Z,1.73
2018-09-28T21:08:38.929Z,2.60
2018-09-28T21:10:43.990Z,5.93
2018-09-28T21:12:49.251Z,3.07
2018-09-28T21:14:53.750Z,2.87
2018-09-28T21:16:58.302Z,2.97
2018-09-28T21:19:02.820Z,2.43
2018-09-28T21:21:07.291Z,1.07
2018-09-28T21:23:11.843Z,1.33
2018-09-28T21:25:16.306Z,2.43
2018-09-28T21:27:20.706Z,2.47
2018-09-28T21:29:25.199Z,2.90
2018-09-28T21:31:29.602Z,1.07
2018-09-28T21:33:34.107Z,1.43
2018-09-28T21:35:38.595Z,3.57
2018-09-28T21:37:43.087Z,2.20
2018-09-28T21:39:47.591Z,1.63
2018-09-28T21:41:52.068Z,3.03
2018-09-28T21:43:56.657Z,1.43
2018-09-28T21:46:01.184Z,1.83
2018-09-28T21:48:05.618Z,1.47
2018-09-28T21:50:10.132Z,2.90
2018-09-28T21:52:14.584Z,0.97
2018-09-28T21:54:19.000Z,2.70
2018-09-28T21:56:23.507Z,2.67
2018-09-28T21:58:27.979Z,1.40
2018-09-28T22:00:36.766Z,1.97
2018-09-28T22:02:41.204Z,2.73
2018-09-28T22:04:45.725Z,4.83
2018-09-28T22:06:50.204Z,1.87
2018-09-28T22:08:54.819Z,1.60
2018-09-28T22:10:59.299Z,1.77
2018-09-28T22:13:03.838Z,2.00
2018-09-28T22:15:08.560Z,3.80
2018-09-28T22:17:13.006Z,0.93
2018-09-28T22:19:17.583Z,3.57
2018-09-28T22:21:22.152Z,2.83
2018-09-28T22:23:26.699Z,1.13
2018-09-28T22:25:31.305Z,2.27
2018-09-28T22:27:35.798Z,1.07
2018-09-28T22:29:40.276Z,3.97
2018-09-28T22:31:44.826Z,1.47
2018-09-28T22:33:49.346Z,3.87
2018-09-28T22:35:54.357Z,1.80
2018-09-28T22:37:58.860Z,2.03
2018-09-28T22:40:03.676Z,2.00
2018-09-28T22:42:08.625Z,6.30
2018-09-28T22:44:13.192Z,4.57
2018-09-28T22:46:17.681Z,3.37
2018-09-28T22:48:22.196Z,1.83
2018-09-28T22:50:27.506Z,2.37
2018-09-28T22:52:32.845Z,2.57
2018-09-28T22:54:37.469Z,3.03
2018-09-28T22:56:41.951Z,1.80
2018-09-28T22:58:46.630Z,3.27
2018-09-28T23:00:52.258Z,4.07
2018-09-28T23:02:57.323Z,1.27
2018-09-28T23:05:03.490Z,1.43
2018-09-28T23:07:08.690Z,2.40
2018-09-28T23:09:13.272Z,2.90
2018-09-28T23:11:17.731Z,2.27
2018-09-28T23:13:22.243Z,2.33
2018-09-28T23:15:26.715Z,4.10
2018-09-28T23:17:31.345Z,3.07
2018-09-28T23:19:36.117Z,3.87
2018-09-28T23:21:40.624Z,2.10
2018-09-28T23:23:45.121Z,1.43
2018-09-28T23:25:49.590Z,1.97
2018-09-28T23:27:54.035Z,1.90
2018-09-28T23:29:58.507Z,6.03
2018-09-28T23:32:03.034Z,2.23
2018-09-28T23:34:08.074Z,2.33
2018-09-28T23:36:12.507Z,2.20
2018-09-28T23:38:18.450Z,2.93
2018-09-28T23:40:22.890Z,3.47
2018-09-28T23:42:27.508Z,2.40
2018-09-28T23:44:31.962Z,1.17
2018-09-28T23:46:36.479Z,1.57
2018-09-28T23:48:40.941Z,3.10
2018-09-28T23:50:45.429Z,3.73
2018-09-28T23:52:50.667Z,1.10
2018-09-28T23:54:55.542Z,1.83
2018-09-28T23:57:00.009Z,2.77
2018-09-28T23:59:04.538Z,1.50
